Time;durP1;ratioP1;P1;durP2;ratioP2;P2;SDS_P1;SDS_P2;PMS_P1;PMS_P2;Temp;Humidity;BMP_temperature;BMP_pressure;BME280_temperature;BME280_humidity;BME280_pressure;Samples;Min_cycle;Max_cycle;Signal;HPM_P1;HPM_P2
2023/06/07 00:03:57;;;;;;;13.15;4.85;;;;;;;10.30;100.00;102166.16;10233980;28;20075;-72
2023/06/07 00:08:58;;;;;;;8.93;4.68;;;;;;;10.28;100.00;102165.50;10234889;28;20047;-70
2023/06/07 00:13:59;;;;;;;12.27;4.78;;;;;;;10.21;100.00;102167.44;10273096;28;20039;-71
2023/06/07 00:19:01;;;;;;;19.00;4.40;;;;;;;10.17;100.00;102166.19;10256029;28;20047;-71
2023/06/07 00:24:02;;;;;;;14.98;5.25;;;;;;;10.14;100.00;102172.13;10251244;28;20043;-70
2023/06/07 00:29:02;;;;;;;13.60;5.28;;;;;;;10.09;100.00;102167.28;10291693;28;20075;-71
2023/06/07 00:34:03;;;;;;;14.40;4.53;;;;;;;9.99;100.00;102152.31;10284966;28;20066;-72
2023/06/07 00:39:04;;;;;;;17.77;3.90;;;;;;;10.02;100.00;102174.72;10256398;28;20035;-71
2023/06/07 00:44:05;;;;;;;10.18;3.15;;;;;;;9.98;100.00;102169.88;10285662;28;20062;-71
2023/06/07 00:49:06;;;;;;;21.60;4.70;;;;;;;10.01;100.00;102169.47;10253834;28;20039;-71
2023/06/07 00:54:07;;;;;;;11.18;3.78;;;;;;;10.04;100.00;102164.34;10234345;28;20036;-71
2023/06/07 00:59:07;;;;;;;13.52;3.97;;;;;;;10.03;100.00;102167.34;10248309;28;20048;-71
2023/06/07 01:04:09;;;;;;;12.77;4.53;;;;;;;10.01;100.00;102158.44;10233295;28;20043;-71
2023/06/07 01:09:13;;;;;;;14.57;5.68;;;;;;;9.96;100.00;102150.84;10251415;28;20046;-71
2023/06/07 01:14:14;;;;;;;12.23;3.67;;;;;;;9.97;100.00;102162.72;10277643;28;20102;-71
2023/06/07 01:19:18;;;;;;;17.23;4.68;;;;;;;9.98;100.00;102167.13;10297984;28;20054;-72
2023/06/07 01:24:18;;;;;;;12.77;4.45;;;;;;;9.89;100.00;102150.88;10281832;28;20038;-72
2023/06/07 01:29:19;;;;;;;9.80;3.58;;;;;;;9.94;100.00;102174.13;10271703;28;20062;-71
2023/06/07 01:34:20;;;;;;;15.75;4.57;;;;;;;9.93;100.00;102173.28;10279627;28;20047;-71
2023/06/07 01:39:21;;;;;;;14.40;5.53;;;;;;;9.90;100.00;102180.09;10295050;28;20051;-72
2023/06/07 01:44:21;;;;;;;15.52;5.03;;;;;;;9.86;100.00;102177.97;10296416;28;20062;-71
2023/06/07 01:49:22;;;;;;;21.70;5.88;;;;;;;9.79;100.00;102166.16;10295864;28;20403;-71
2023/06/07 01:54:22;;;;;;;15.32;4.85;;;;;;;9.74;100.00;102171.47;10270896;28;20054;-71
2023/06/07 01:59:42;;;;;;;18.95;5.75;;;;;;;9.81;100.00;102170.38;10296252;28;20097;-70
2023/06/07 02:04:45;;;;;;;19.67;5.78;;;;;;;9.93;100.00;102162.28;10272035;28;20098;-70
2023/06/07 02:09:45;;;;;;;17.98;5.40;;;;;;;10.06;100.00;102164.13;10272780;28;20074;-70
2023/06/07 02:14:46;;;;;;;20.70;5.10;;;;;;;10.20;100.00;102162.16;10244012;28;20090;-70
2023/06/07 02:19:46;;;;;;;13.98;4.07;;;;;;;10.30;100.00;102157.88;10254592;28;20039;-70
2023/06/07 02:24:47;;;;;;;12.60;4.85;;;;;;;10.43;100.00;102158.88;10255025;28;20039;-70
2023/06/07 02:29:47;;;;;;;21.30;5.30;;;;;;;10.55;100.00;102153.50;10230577;28;20099;-71
2023/06/07 02:34:48;;;;;;;11.13;3.92;;;;;;;10.66;100.00;102150.84;10254840;28;20059;-71
2023/06/07 02:39:49;;;;;;;12.30;3.40;;;;;;;10.78;100.00;102150.13;10257669;28;20058;-71
2023/06/07 02:44:49;;;;;;;14.77;4.00;;;;;;;10.77;100.00;102148.44;10293322;28;20058;-68
2023/06/07 02:49:50;;;;;;;15.68;3.65;;;;;;;10.87;100.00;102151.53;10295891;28;20379;-70
2023/06/07 02:54:50;;;;;;;11.50;2.80;;;;;;;10.90;100.00;102145.59;10295326;28;20042;-71
2023/06/07 02:59:53;;;;;;;15.98;3.40;;;;;;;10.93;100.00;102147.03;10293008;28;20510;-70
2023/06/07 03:04:56;;;;;;;13.23;4.20;;;;;;;10.94;100.00;102146.00;10278124;28;20507;-71
2023/06/07 03:09:56;;;;;;;12.93;3.40;;;;;;;10.95;100.00;102145.75;10292019;28;20097;-71
2023/06/07 03:14:58;;;;;;;17.30;3.45;;;;;;;10.98;100.00;102145.31;10292995;28;20570;-71
2023/06/07 03:19:58;;;;;;;13.63;2.97;;;;;;;11.01;100.00;102144.84;10294025;28;20050;-71
2023/06/07 03:25:00;;;;;;;14.35;3.65;;;;;;;11.07;100.00;102151.38;10294419;28;20105;-71
2023/06/07 03:30:01;;;;;;;13.20;3.92;;;;;;;11.09;100.00;102141.78;10294422;28;20046;-71
2023/06/07 03:35:01;;;;;;;14.10;3.00;;;;;;;11.14;100.00;102145.78;10293851;28;20042;-71
2023/06/07 03:40:03;;;;;;;11.38;3.03;;;;;;;11.21;100.00;102152.09;10289110;28;20042;-71
2023/06/07 03:45:04;;;;;;;11.70;2.70;;;;;;;11.23;100.00;102150.78;10291631;28;20330;-71
2023/06/07 03:50:05;;;;;;;17.30;4.22;;;;;;;11.24;100.00;102146.94;10291468;28;20034;-71
2023/06/07 03:55:07;;;;;;;8.85;2.45;;;;;;;11.22;100.00;102149.09;10291324;28;20932;-71
2023/06/07 04:00:10;;;;;;;15.13;3.30;;;;;;;11.24;100.00;102143.34;10291034;28;20050;-71
2023/06/07 04:05:11;;;;;;;10.30;2.80;;;;;;;11.24;100.00;102127.66;10291351;28;20035;-71
2023/06/07 04:10:11;;;;;;;8.05;2.28;;;;;;;11.27;100.00;102140.16;10290362;28;20038;-71
2023/06/07 04:15:12;;;;;;;10.35;2.70;;;;;;;11.34;100.00;102140.06;10291464;28;20070;-71
2023/06/07 04:20:14;;;;;;;12.18;2.42;;;;;;;11.36;100.00;102130.50;10290837;28;20038;-71
2023/06/07 04:25:16;;;;;;;9.90;3.40;;;;;;;11.45;100.00;102131.91;10290549;28;20065;-71
2023/06/07 04:30:18;;;;;;;10.27;2.70;;;;;;;11.48;100.00;102114.88;10273037;28;20057;-71
2023/06/07 04:35:19;;;;;;;12.57;2.63;;;;;;;11.59;100.00;102127.03;10274109;28;20039;-71
2023/06/07 04:40:20;;;;;;;9.13;2.70;;;;;;;11.48;100.00;102114.88;10291604;28;20046;-71
2023/06/07 04:45:28;;;;;;;14.20;3.28;;;;;;;11.44;100.00;102130.19;10272854;28;20050;-71
2023/06/07 04:50:33;;;;;;;16.85;3.47;;;;;;;11.44;100.00;102129.34;10292496;28;20042;-71
2023/06/07 04:55:34;;;;;;;12.10;3.03;;;;;;;11.48;100.00;102120.38;10292770;28;20031;-71
2023/06/07 05:00:38;;;;;;;5.95;2.38;;;;;;;11.67;100.00;102140.53;10247330;28;20577;-71
2023/06/07 05:05:40;;;;;;;17.33;4.70;;;;;;;11.81;100.00;102132.94;10297853;28;20050;-71
2023/06/07 05:10:40;;;;;;;13.55;2.95;;;;;;;11.95;100.00;102130.03;10291413;28;20046;-72
2023/06/07 05:15:41;;;;;;;8.57;2.70;;;;;;;12.04;100.00;102135.00;10279752;28;20039;-71
2023/06/07 05:20:41;;;;;;;6.38;2.67;;;;;;;12.07;100.00;102133.69;10250799;28;20040;-71
2023/06/07 05:25:45;;;;;;;9.27;2.90;;;;;;;12.20;100.00;102141.78;10256085;28;20313;-71
2023/06/07 05:30:46;;;;;;;11.60;3.45;;;;;;;12.15;100.00;102136.13;10258712;28;20039;-71
2023/06/07 05:35:47;;;;;;;14.18;4.68;;;;;;;12.22;100.00;102131.34;10255645;28;20070;-72
2023/06/07 05:40:48;;;;;;;9.73;3.25;;;;;;;12.30;100.00;102128.25;10240042;28;20095;-71
2023/06/07 05:45:49;;;;;;;9.38;3.17;;;;;;;12.55;100.00;102132.78;10257524;28;20059;-69
2023/06/07 05:50:49;;;;;;;9.68;2.90;;;;;;;12.71;100.00;102145.91;10240555;28;20035;-71
2023/06/07 05:55:50;;;;;;;16.38;4.50;;;;;;;12.82;100.00;102148.94;10256602;28;20031;-71
2023/06/07 06:00:51;;;;;;;18.13;5.50;;;;;;;13.06;100.00;102131.28;10256234;28;20042;-72
2023/06/07 06:05:51;;;;;;;10.98;3.13;;;;;;;13.33;100.00;102147.38;10208445;28;20032;-72
2023/06/07 06:10:52;;;;;;;10.95;2.58;;;;;;;13.48;100.00;102122.00;10255230;28;20035;-72
2023/06/07 06:15:53;;;;;;;8.18;2.10;;;;;;;13.86;100.00;102140.78;10257906;28;20043;-71
2023/06/07 06:20:53;;;;;;;5.80;2.15;;;;;;;13.61;100.00;102137.50;10256206;28;20035;-72
2023/06/07 06:25:54;;;;;;;12.18;2.63;;;;;;;13.47;100.00;102148.81;10222578;28;20063;-72
2023/06/07 06:30:54;;;;;;;8.40;2.60;;;;;;;13.42;100.00;102151.47;10256337;28;20070;-72
2023/06/07 06:35:55;;;;;;;10.90;2.70;;;;;;;13.52;100.00;102168.31;10239318;28;20057;-72
2023/06/07 06:40:55;;;;;;;6.28;2.20;;;;;;;13.74;100.00;102159.34;10244530;28;20105;-72
2023/06/07 06:45:56;;;;;;;8.13;2.30;;;;;;;14.58;100.00;102156.03;10294465;28;20042;-72
2023/06/07 06:50:56;;;;;;;13.15;2.10;;;;;;;15.01;100.00;102151.78;10296490;28;20039;-72
2023/06/07 06:55:57;;;;;;;9.90;2.42;;;;;;;14.82;100.00;102155.88;10294492;28;20046;-71
2023/06/07 07:00:57;;;;;;;10.00;2.53;;;;;;;14.57;100.00;102175.69;10262403;28;20043;-72
2023/06/07 07:05:58;;;;;;;11.48;2.60;;;;;;;14.10;100.00;102179.50;10294066;28;20079;-72
2023/06/07 07:10:58;;;;;;;7.95;2.75;;;;;;;13.83;100.00;102174.50;10278536;28;20039;-72
2023/06/07 07:15:59;;;;;;;13.25;3.20;;;;;;;13.80;100.00;102186.06;10251033;28;20050;-72
2023/06/07 07:20:59;;;;;;;12.55;2.70;;;;;;;14.07;100.00;102174.44;10269832;28;20038;-72
2023/06/07 07:26:00;;;;;;;10.43;2.95;;;;;;;14.57;100.00;102190.38;10272529;28;20124;-72
2023/06/07 07:31:00;;;;;;;12.80;4.22;;;;;;;14.93;100.00;102166.06;10271538;28;20035;-71
2023/06/07 07:36:02;;;;;;;6.30;2.72;;;;;;;15.42;100.00;102179.28;10272102;28;20055;-72
2023/06/07 07:41:04;;;;;;;7.97;2.70;;;;;;;15.71;100.00;102171.66;10273736;28;20038;-72
2023/06/07 07:46:05;;;;;;;11.77;3.53;;;;;;;15.43;100.00;102165.16;10271529;28;20114;-71
2023/06/07 07:51:06;;;;;;;8.85;2.53;;;;;;;15.42;100.00;102169.03;10272354;28;20059;-72
2023/06/07 07:56:06;;;;;;;8.82;2.53;;;;;;;15.67;100.00;102167.72;10273437;28;20460;-72
2023/06/07 08:01:08;;;;;;;7.85;2.10;;;;;;;15.67;100.00;102176.06;10271744;28;20577;-73
2023/06/07 08:06:09;;;;;;;5.72;2.50;;;;;;;15.82;100.00;102175.44;10270579;28;20058;-71
2023/06/07 08:11:09;;;;;;;7.78;3.38;;;;;;;15.89;100.00;102163.03;10271086;28;20420;-71
2023/06/07 08:16:10;;;;;;;7.57;2.53;;;;;;;16.14;100.00;102169.97;10261481;28;20039;-72
2023/06/07 08:21:12;;;;;;;6.45;2.40;;;;;;;16.00;100.00;102172.34;10272360;28;20049;-71
2023/06/07 08:26:12;;;;;;;15.38;3.95;;;;;;;16.11;100.00;102170.50;10273037;28;20117;-71
2023/06/07 08:31:13;;;;;;;9.38;3.63;;;;;;;16.33;100.00;102165.75;10270326;28;20038;-72
2023/06/07 08:36:14;;;;;;;9.35;2.80;;;;;;;16.53;100.00;102159.56;10265840;28;20050;-71
2023/06/07 08:41:15;;;;;;;4.97;2.30;;;;;;;16.60;100.00;102156.59;10285534;28;20402;-72
2023/06/07 08:46:17;;;;;;;13.65;3.10;;;;;;;16.88;100.00;102147.09;10266081;28;20110;-71
2023/06/07 08:51:17;;;;;;;4.78;2.75;;;;;;;17.15;100.00;102144.25;10282395;28;20590;-71
2023/06/07 08:56:18;;;;;;;9.35;3.22;;;;;;;17.30;100.00;102140.75;10274936;28;20042;-71
2023/06/07 09:01:20;;;;;;;7.05;2.95;;;;;;;17.15;100.00;102152.59;10289641;28;20047;-70
2023/06/07 09:06:21;;;;;;;10.35;3.28;;;;;;;17.27;100.00;102149.63;10288105;28;20038;-70
2023/06/07 09:11:22;;;;;;;11.18;3.15;;;;;;;17.60;100.00;102141.19;10265238;28;20431;-71
2023/06/07 09:16:22;;;;;;;10.30;3.28;;;;;;;17.73;100.00;102138.72;10265952;28;20058;-70
2023/06/07 09:21:27;;;;;;;8.43;2.63;;;;;;;17.83;100.00;102134.34;10244998;28;20039;-70
2023/06/07 09:26:38;;;;;;;6.75;2.58;;;;;;;17.94;100.00;102139.69;10275882;28;20522;-71
2023/06/07 09:31:38;;;;;;;11.57;2.70;;;;;;;18.32;100.00;102142.28;10283794;28;20051;-70
2023/06/07 09:36:51;;;;;;;8.80;1.83;;;;;;;18.66;100.00;102128.66;10284867;28;20075;-69
2023/06/07 09:41:55;;;;;;;7.63;3.05;;;;;;;18.67;100.00;102133.13;10293020;28;20069;-69
2023/06/07 09:46:56;;;;;;;7.55;3.45;;;;;;;18.67;100.00;102133.13;10255212;28;20042;-68
2023/06/07 09:51:57;;;;;;;7.70;3.13;;;;;;;18.39;100.00;102136.44;10278774;28;20046;-71
2023/06/07 09:56:57;;;;;;;11.95;2.80;;;;;;;18.23;100.00;102122.50;10280853;28;20069;-70
2023/06/07 10:01:58;;;;;;;15.02;3.63;;;;;;;18.64;100.00;102132.84;10289448;28;20035;-71
2023/06/07 10:07:00;;;;;;;8.15;3.17;;;;;;;18.91;100.00;102129.78;10279150;28;20407;-71
2023/06/07 10:12:01;;;;;;;7.78;2.60;;;;;;;18.74;100.00;102128.09;10292355;28;20055;-71
2023/06/07 10:17:05;;;;;;;10.00;2.70;;;;;;;18.53;100.00;102127.25;10291875;28;20050;-70
2023/06/07 10:22:09;;;;;;;12.18;2.38;;;;;;;18.68;100.00;102128.38;10291008;28;20035;-72
2023/06/07 10:27:17;;;;;;;7.80;3.08;;;;;;;19.07;100.00;102125.03;10266951;28;20087;-72
2023/06/07 10:32:22;;;;;;;5.65;2.95;;;;;;;19.26;100.00;102122.47;10273587;28;20050;-71
2023/06/07 10:37:24;;;;;;;10.10;2.60;;;;;;;19.00;100.00;102107.75;10273282;28;20053;-71
2023/06/07 10:42:24;;;;;;;9.52;3.00;;;;;;;19.35;100.00;102118.84;10258976;28;20146;-71
2023/06/07 10:47:26;;;;;;;10.77;2.90;;;;;;;19.77;100.00;102116.75;10276576;28;20119;-71
2023/06/07 10:52:26;;;;;;;5.93;2.70;;;;;;;20.00;100.00;102115.25;10270018;28;20046;-77
2023/06/07 10:57:34;;;;;;;5.57;3.05;;;;;;;19.90;100.00;102104.94;10260307;28;20548;-78
2023/06/07 11:02:35;;;;;;;7.03;2.42;;;;;;;19.95;100.00;102102.13;10256125;28;20407;-84
2023/06/07 11:07:41;;;;;;;8.70;2.58;;;;;;;20.15;100.00;102090.00;10254912;28;20040;-74
2023/06/07 11:12:45;;;;;;;10.50;3.97;;;;;;;20.12;100.00;102092.53;10270210;28;20062;-73
2023/06/07 11:17:52;;;;;;;12.70;3.42;;;;;;;20.31;100.00;102098.28;10262771;28;20117;-78
2023/06/07 11:22:53;;;;;;;8.10;2.70;;;;;;;20.25;100.00;102088.25;10253385;28;20043;-78
2023/06/07 11:27:53;;;;;;;8.45;3.20;;;;;;;20.26;100.00;102079.56;10252872;23;20102;-76
2023/06/07 11:32:54;;;;;;;9.18;3.72;;;;;;;20.52;100.00;102090.56;10345172;23;20687;-89
2023/06/07 11:37:54;;;;;;;17.65;4.60;;;;;;;20.67;100.00;102082.06;10395738;28;20042;-90
2023/06/07 11:42:55;;;;;;;9.77;3.50;;;;;;;21.04;100.00;102066.56;10398791;28;20126;-86
2023/06/07 11:48:01;;;;;;;8.25;3.50;;;;;;;21.18;100.00;102077.91;10368653;28;20072;-80
2023/06/07 11:53:02;;;;;;;12.40;2.92;;;;;;;21.49;100.00;102067.22;10393890;28;20082;-88
2023/06/07 11:58:06;;;;;;;7.45;2.85;;;;;;;21.72;100.00;102064.69;10382892;28;20041;-88
2023/06/07 12:03:06;;;;;;;6.03;2.90;;;;;;;22.03;100.00;102062.25;10374117;28;20062;-88
2023/06/07 12:08:13;;;;;;;9.38;2.95;;;;;;;22.26;100.00;102056.91;10354884;28;20034;-88
2023/06/07 12:13:15;;;;;;;9.75;3.10;;;;;;;22.31;100.00;102049.25;10371668;28;20046;-88
2023/06/07 12:18:18;;;;;;;10.05;3.72;;;;;;;22.69;100.00;102060.38;10364907;28;20037;-88
2023/06/07 12:23:20;;;;;;;8.00;3.08;;;;;;;22.96;98.39;102061.56;10376831;28;20042;-88
2023/06/07 12:28:20;;;;;;;11.25;4.20;;;;;;;23.39;94.06;102043.63;10370325;28;20045;-88
2023/06/07 12:33:21;;;;;;;10.27;3.08;;;;;;;23.93;93.48;102017.41;10361522;28;20045;-89
2023/06/07 12:38:22;;;;;;;7.60;2.78;;;;;;;24.03;88.76;102052.06;10380426;28;20087;-89
2023/06/07 12:43:23;;;;;;;9.02;2.72;;;;;;;23.92;92.09;102063.56;10356786;28;20030;-89
2023/06/07 12:48:24;;;;;;;7.85;3.10;;;;;;;24.23;90.80;102054.41;10332298;28;20038;-87
2023/06/07 12:53:24;;;;;;;9.20;3.13;;;;;;;24.27;87.69;102046.16;10335854;28;20034;-88
2023/06/07 12:58:25;;;;;;;9.27;3.28;;;;;;;24.27;89.87;102049.78;10334664;28;20039;-86
2023/06/07 13:03:26;;;;;;;12.75;3.08;;;;;;;24.37;86.60;102034.63;10334115;28;20387;-86
2023/06/07 13:08:26;;;;;;;9.30;4.03;;;;;;;24.89;86.21;102036.97;10333392;28;20039;-86
2023/06/07 13:13:27;;;;;;;9.75;2.90;;;;;;;25.13;85.39;102040.19;10323520;28;20044;-81
2023/06/07 13:18:28;;;;;;;9.80;2.85;;;;;;;25.51;84.74;102028.41;10342931;28;20042;-90
2023/06/07 13:23:29;;;;;;;9.35;3.45;;;;;;;25.24;81.34;102031.47;10342718;28;20031;-86
2023/06/07 13:28:29;;;;;;;8.85;3.28;;;;;;;24.87;83.69;102033.66;10407184;28;20064;-89
2023/06/07 13:33:30;;;;;;;8.45;3.00;;;;;;;24.83;84.23;102029.81;10424272;28;20053;-88
2023/06/07 13:38:32;;;;;;;10.90;3.10;;;;;;;25.04;83.32;102019.63;10382454;28;20064;-89
2023/06/07 13:43:33;;;;;;;11.55;3.17;;;;;;;25.29;82.45;102020.06;10366303;28;20034;-89
2023/06/07 13:48:35;;;;;;;10.52;3.20;;;;;;;25.36;80.44;102007.16;10365552;28;20061;-88
2023/06/07 13:53:36;;;;;;;7.78;2.95;;;;;;;25.04;81.56;101980.19;10365704;28;20046;-88
2023/06/07 13:58:37;;;;;;;11.15;3.55;;;;;;;25.20;80.93;102013.53;10351167;28;20458;-88
2023/06/07 14:03:38;;;;;;;9.57;3.05;;;;;;;25.56;81.12;102019.78;10366739;28;20038;-88
2023/06/07 14:08:39;;;;;;;10.70;3.17;;;;;;;25.88;78.93;101995.13;10364426;28;20038;-87
2023/06/07 14:13:42;;;;;;;8.77;3.10;;;;;;;25.27;78.10;101988.56;10380065;28;20145;-89
2023/06/07 14:18:43;;;;;;;9.48;3.05;;;;;;;25.44;78.37;101994.22;10348081;28;20042;-88
2023/06/07 14:23:43;;;;;;;11.35;3.17;;;;;;;25.06;78.71;101991.94;10380125;28;20100;-88
2023/06/07 14:28:44;;;;;;;6.55;3.03;;;;;;;25.37;79.21;101971.34;10364289;28;20044;-88
2023/06/07 14:33:44;;;;;;;10.70;4.25;;;;;;;26.21;76.01;101977.69;10379107;28;20175;-88
2023/06/07 14:38:45;;;;;;;6.97;3.15;;;;;;;25.67;74.62;101974.34;10376805;28;20044;-85
2023/06/07 14:43:45;;;;;;;11.77;3.72;;;;;;;24.79;75.93;101992.19;10360375;28;20147;-88
2023/06/07 14:48:46;;;;;;;8.70;3.05;;;;;;;25.08;78.36;102003.72;10388841;28;20041;-87
2023/06/07 14:53:47;;;;;;;7.05;3.35;;;;;;;25.34;77.41;101980.44;10418092;28;20042;-87
2023/06/07 14:58:47;;;;;;;9.68;3.83;;;;;;;25.09;76.09;101982.84;10401486;28;20045;-88
2023/06/07 15:03:48;;;;;;;7.93;2.80;;;;;;;25.31;75.80;101986.75;10394323;28;20393;-88
2023/06/07 15:08:53;;;;;;;9.30;3.78;;;;;;;25.37;75.55;101980.63;10359047;28;20034;-88
2023/06/07 15:13:53;;;;;;;7.93;3.43;;;;;;;25.29;75.54;101980.63;10337775;28;20065;-88
2023/06/07 15:18:54;;;;;;;10.35;3.92;;;;;;;25.01;76.23;101986.44;10302439;28;20042;-88
2023/06/07 15:23:55;;;;;;;10.00;3.35;;;;;;;24.85;76.00;101962.72;10335534;28;20039;-88
2023/06/07 15:28:56;;;;;;;13.90;3.55;;;;;;;24.96;76.73;101961.25;10333242;28;20041;-88
2023/06/07 15:33:57;;;;;;;7.20;3.10;;;;;;;25.13;75.97;101964.13;10358112;28;20057;-88
2023/06/07 15:38:57;;;;;;;13.75;5.10;;;;;;;25.65;75.37;101966.22;10345766;28;20050;-88
2023/06/07 15:43:58;;;;;;;10.98;4.32;;;;;;;25.31;74.59;101948.13;10363516;28;20041;-89
2023/06/07 15:48:58;;;;;;;8.93;3.90;;;;;;;25.15;76.17;101935.63;10361282;28;20049;-88
2023/06/07 15:53:59;;;;;;;8.80;3.85;;;;;;;25.45;75.99;101956.44;10359589;28;20030;-87
2023/06/07 15:58:59;;;;;;;6.68;2.58;;;;;;;26.20;74.29;101959.09;10384475;28;20049;-79
2023/06/07 16:04:00;;;;;;;10.98;3.70;;;;;;;26.03;72.86;101942.19;10398902;28;20044;-88
2023/06/07 16:09:02;;;;;;;8.45;3.20;;;;;;;25.75;73.13;101942.50;10398072;28;20033;-87
2023/06/07 16:14:03;;;;;;;8.27;2.95;;;;;;;25.60;72.90;101949.47;10394523;28;20096;-87
2023/06/07 16:19:09;;;;;;;7.95;3.50;;;;;;;25.40;74.06;101945.31;10373296;28;20046;-85
2023/06/07 16:24:09;;;;;;;8.95;3.13;;;;;;;25.81;74.03;101946.81;10359202;28;20026;-87
2023/06/07 16:29:10;;;;;;;10.00;3.35;;;;;;;26.34;71.38;101945.59;10373558;28;20076;-87
2023/06/07 16:34:10;;;;;;;10.15;4.15;;;;;;;25.47;72.48;101920.28;10356545;28;20041;-87
2023/06/07 16:39:11;;;;;;;10.77;4.00;;;;;;;26.17;72.00;101940.84;10356262;28;20042;-88
2023/06/07 16:44:12;;;;;;;13.30;4.78;;;;;;;25.34;73.10;101947.47;10371436;28;20042;-89
2023/06/07 16:49:13;;;;;;;6.47;3.67;;;;;;;23.74;75.68;101949.22;10396951;28;20064;-87
2023/06/07 16:54:14;;;;;;;13.93;3.88;;;;;;;22.32;78.33;101958.31;10381508;28;20037;-87
2023/06/07 16:59:15;;;;;;;10.55;3.53;;;;;;;21.11;80.61;101966.28;10396570;28;20050;-87
2023/06/07 17:04:16;;;;;;;14.15;3.92;;;;;;;20.04;86.23;101976.56;10362287;28;20041;-87
2023/06/07 17:09:17;;;;;;;13.23;4.60;;;;;;;19.36;91.29;101988.44;10378651;28;20041;-88
2023/06/07 17:14:19;;;;;;;9.07;3.95;;;;;;;18.95;93.63;101996.97;10380506;28;20065;-84
2023/06/07 17:19:19;;;;;;;11.20;3.97;;;;;;;18.84;97.51;101989.75;10410085;28;20038;-86
2023/06/07 17:24:21;;;;;;;12.52;4.63;;;;;;;18.23;98.85;101999.84;10401214;28;20080;-86
2023/06/07 17:29:22;;;;;;;9.13;3.63;;;;;;;17.92;100.00;101997.03;10372421;28;20119;-85
2023/06/07 17:34:22;;;;;;;14.27;6.65;;;;;;;17.50;100.00;101975.72;10333995;28;22008;-87
2023/06/07 17:39:23;;;;;;;16.45;8.18;;;;;;;17.44;100.00;101971.25;10339951;28;20050;-86
2023/06/07 17:44:24;;;;;;;12.73;5.43;;;;;;;17.26;100.00;101996.81;10338234;28;20038;-86
2023/06/07 17:49:25;;;;;;;12.80;7.05;;;;;;;16.87;100.00;101988.84;10354052;28;20033;-85
2023/06/07 17:54:26;;;;;;;16.48;6.95;;;;;;;16.82;100.00;102008.28;10354534;28;20034;-84
2023/06/07 17:59:26;;;;;;;20.90;7.95;;;;;;;16.62;100.00;102000.59;10361086;28;20047;-86
2023/06/07 18:04:27;;;;;;;11.63;7.05;;;;;;;16.47;100.00;102001.34;10347779;28;20049;-86
2023/06/07 18:09:27;;;;;;;15.52;6.65;;;;;;;16.45;100.00;101997.97;10333048;28;20112;-87
2023/06/07 18:14:28;;;;;;;12.52;5.32;;;;;;;16.31;100.00;101992.88;10348555;28;20036;-86
2023/06/07 18:19:28;;;;;;;8.77;4.65;;;;;;;16.19;100.00;102005.28;10383566;28;20506;-87
2023/06/07 18:24:29;;;;;;;19.30;7.45;;;;;;;15.92;100.00;101973.66;10363543;28;20034;-86
2023/06/07 18:29:30;;;;;;;17.50;5.72;;;;;;;15.77;100.00;102004.03;10383380;28;20035;-88
2023/06/07 18:34:32;;;;;;;9.25;3.78;;;;;;;15.56;100.00;102014.06;10370338;28;20102;-86
2023/06/07 18:39:34;;;;;;;10.13;3.45;;;;;;;15.52;100.00;102022.09;10382231;28;20509;-87
2023/06/07 18:44:35;;;;;;;13.38;3.65;;;;;;;15.41;100.00;102019.44;10364043;28;20045;-88
2023/06/07 18:49:35;;;;;;;11.10;4.05;;;;;;;15.29;100.00;102009.28;10356710;28;20129;-89
2023/06/07 18:54:37;;;;;;;10.65;4.00;;;;;;;15.17;100.00;102021.63;10362083;28;22656;-87
2023/06/07 18:59:40;;;;;;;8.43;4.03;;;;;;;14.99;100.00;102031.13;10393886;28;20122;-92
2023/06/07 19:04:41;;;;;;;14.90;5.30;;;;;;;14.85;100.00;102034.22;10407042;28;20108;-93
2023/06/07 19:09:43;;;;;;;12.80;3.97;;;;;;;14.77;100.00;102034.66;10395455;28;20072;-93
2023/06/07 19:14:45;;;;;;;13.90;4.43;;;;;;;14.59;100.00;102032.16;10413333;28;20065;-93
2023/06/07 19:19:47;;;;;;;10.73;4.43;;;;;;;14.45;100.00;102023.31;10384096;28;20498;-92
2023/06/07 19:24:48;;;;;;;11.48;4.60;;;;;;;14.22;100.00;102032.63;10388397;28;20049;-93
2023/06/07 19:29:48;;;;;;;14.85;5.45;;;;;;;13.99;100.00;102034.44;10388153;28;20045;-92
2023/06/07 19:34:50;;;;;;;9.30;4.32;;;;;;;13.84;100.00;102032.22;10383457;28;20136;-93
2023/06/07 19:39:52;;;;;;;15.73;5.40;;;;;;;13.69;100.00;102020.88;10365513;28;20046;-91
2023/06/07 19:44:52;;;;;;;9.88;3.72;;;;;;;13.58;100.00;102041.13;10363230;28;20135;-90
2023/06/07 19:49:53;;;;;;;13.27;4.78;;;;;;;13.43;100.00;102036.97;10324222;28;20030;-93
2023/06/07 19:54:53;;;;;;;10.80;4.80;;;;;;;13.24;100.00;102033.50;10405335;28;20030;-92
2023/06/07 19:59:54;;;;;;;13.27;5.32;;;;;;;13.12;100.00;102044.59;10367186;28;20097;-92
2023/06/07 20:04:54;;;;;;;10.23;4.50;;;;;;;13.03;100.00;102047.97;10343380;28;20038;-91
2023/06/07 20:10:02;;;;;;;19.48;5.47;;;;;;;12.93;100.00;102059.63;10350390;28;20030;-91
2023/06/07 20:15:03;;;;;;;19.17;5.22;;;;;;;12.83;100.00;102062.16;10337446;28;20128;-92
2023/06/07 20:20:04;;;;;;;10.43;4.22;;;;;;;12.72;100.00;102061.06;10354062;28;20037;-95
2023/06/07 20:25:05;;;;;;;15.05;6.13;;;;;;;12.59;100.00;102056.63;10388072;28;20056;-93
2023/06/07 20:30:06;;;;;;;11.07;4.90;;;;;;;12.52;100.00;102047.59;10342105;28;20546;-92
2023/06/07 20:35:08;;;;;;;17.48;6.25;;;;;;;12.45;100.00;102057.94;10328786;28;20053;-82
2023/06/07 20:40:09;;;;;;;11.77;5.70;;;;;;;12.36;100.00;102053.81;10342053;28;20042;-85
2023/06/07 20:45:12;;;;;;;13.10;5.90;;;;;;;12.25;100.00;102053.56;10305223;28;20113;-87
2023/06/07 20:50:12;;;;;;;13.60;7.68;;;;;;;12.21;100.00;102055.09;10329087;28;20062;-87
2023/06/07 20:55:14;;;;;;;13.70;4.72;;;;;;;12.01;100.00;102041.63;10325187;28;20176;-89
2023/06/07 21:00:15;;;;;;;16.23;7.03;;;;;;;11.93;100.00;102044.72;10348314;28;20045;-79
2023/06/07 21:05:16;;;;;;;17.48;6.43;;;;;;;11.49;100.00;101981.44;10327219;28;20106;-89
2023/06/07 21:10:16;;;;;;;13.13;6.00;;;;;;;12.00;100.00;102063.94;10384229;28;20054;-88
2023/06/07 21:15:18;;;;;;;11.00;5.82;;;;;;;11.98;100.00;102057.81;10392506;28;20415;-89
2023/06/07 21:20:19;;;;;;;17.10;6.28;;;;;;;11.95;100.00;102063.78;10381911;28;20442;-79
2023/06/07 21:25:21;;;;;;;14.05;5.50;;;;;;;11.93;100.00;102057.66;10419316;28;20034;-90
2023/06/07 21:30:21;;;;;;;10.57;5.60;;;;;;;11.83;100.00;102055.47;10386924;28;20037;-88
2023/06/07 21:35:22;;;;;;;9.80;4.63;;;;;;;11.86;100.00;102054.97;10388930;28;20044;-87
2023/06/07 21:40:23;;;;;;;12.95;5.95;;;;;;;11.84;100.00;102057.97;10390390;28;20042;-88
2023/06/07 21:45:26;;;;;;;22.20;6.78;;;;;;;11.83;100.00;102063.72;10394223;28;20221;-88
2023/06/07 21:50:27;;;;;;;14.85;5.32;;;;;;;11.78;100.00;102064.44;10373693;28;20049;-90
2023/06/07 21:55:27;;;;;;;10.38;5.65;;;;;;;11.84;100.00;102070.91;10377836;28;20034;-92
2023/06/07 22:00:28;;;;;;;16.90;5.88;;;;;;;11.90;100.00;102058.97;10396165;28;20060;-90
2023/06/07 22:05:29;;;;;;;18.35;6.05;;;;;;;11.99;100.00;102053.97;10429785;28;20057;-87
2023/06/07 22:10:29;;;;;;;15.52;5.38;;;;;;;12.01;100.00;102046.28;10354144;28;20030;-88
2023/06/07 22:15:30;;;;;;;15.88;4.93;;;;;;;11.95;100.00;102048.09;10323335;28;20057;-89
2023/06/07 22:20:32;;;;;;;13.52;5.40;;;;;;;11.94;100.00;102045.56;10388457;28;20109;-89
2023/06/07 22:25:32;;;;;;;18.13;5.35;;;;;;;11.93;100.00;102052.13;10388265;28;20100;-87
2023/06/07 22:30:33;;;;;;;17.63;5.32;;;;;;;11.91;100.00;102041.38;10363956;28;20046;-88
2023/06/07 22:35:34;;;;;;;14.35;6.32;;;;;;;11.81;100.00;102030.00;10390374;28;20098;-87
2023/06/07 22:40:35;;;;;;;15.45;5.45;;;;;;;11.91;100.00;102057.91;10357300;28;20046;-89
2023/06/07 22:45:36;;;;;;;15.50;6.60;;;;;;;11.89;100.00;102049.88;10351485;28;20555;-89